• Join FlightAware (Why Join?)
  • Login
  • US Flag 
01:17PM EDT


 

Airport Tracker/Info


-or-


 

Live Flight TrackerFlight Track Log ✈ SWA2166 ✈ 29-Jun-2013 ✈ KBWI - KMCO

Flight Track Log - Related Links

Times and Time Zones

All times are in EDT time to prevent confusion due to time zone crossing. See the SWA2166 flight status page for this flight to view local times or setup timezone preferences in your user account.

Time Position Orientation Groundspeed Altitude Reporting Facility
EDT Latitude Longitude Course Direction KTS MPH feet Rate Location/Type
12:19PM 39.1833 -76.7333 284° West 179 206 2,300  Level Potomac TRACON
12:20PM 39.2000 -76.8167 284° West 244 281 4,400 3,060 Climbing Potomac TRACON
12:21PM 39.2000 -76.9167 270° West 259 298 8,500 3,960 Climbing Potomac TRACON
12:22PM 39.2167 -77.0000 284° West 243 280 12,500 3,720 Climbing Potomac TRACON
12:23PM 39.2167 -77.0833 270° West 254 292 15,700 3,120 Climbing Potomac TRACON
12:24PM 39.1667 -77.1500 226° Southwest 279 321 18,900 2,100 Climbing Potomac TRACON
12:25PM 39.0833 -77.2000 205° Southwest 329 379 20,200 1,680 Climbing Potomac TRACON
12:26PM 39.0000 -77.2500 205° Southwest 371 427 22,300 1,380 Climbing Potomac TRACON
12:27PM 38.9000 -77.3000 201° Southwest 388 447 23,000 240 Climbing Potomac TRACON
12:29PM 38.7100 -77.4061 204° Southwest 397 457 23,100 660 Climbing Washington Center
12:30PM 38.6253 -77.4917 218° Southwest 391 450 25,100 1,920 Climbing Washington Center
12:31PM 38.5425 -77.5825 221° Southwest 391 450 27,000 1,380 Climbing Washington Center
12:32PM 38.4575 -77.6731 220° Southwest 397 457 27,900 1,380 Climbing Washington Center
12:33PM 38.3706 -77.7581 217° Southwest 402 463 29,800 1,020 Climbing Washington Center
12:34PM 38.2814 -77.8481 218° Southwest 402 463 30,000 60 Climbing Washington Center
12:35PM 38.1919 -77.9378 218° Southwest 402 463 30,000  Level Washington Center
12:36PM 38.1047 -78.0222 217° Southwest 402 463 30,000  Level Washington Center
12:37PM 38.0050 -78.1164 217° Southwest 402 463 30,000  Level Washington Center
12:38PM 37.9175 -78.2083 220° Southwest 402 463 30,000  Level Washington Center
12:39PM 37.8300 -78.2944 218° Southwest 407 468 30,000  Level Washington Center
12:40PM 37.7383 -78.3833 217° Southwest 407 468 30,000  Level Washington Center
12:41PM 37.6486 -78.4692 217° Southwest 407 468 30,000 780 Level Washington Center
12:42PM 37.5653 -78.5497 217° Southwest 412 474 31,600 1,860 Climbing Washington Center
12:43PM 37.4756 -78.6353 217° Southwest 412 474 33,800 1,920 Climbing Washington Center
12:44PM 37.3881 -78.7181 217° Southwest 412 474 35,500 1,620 Climbing Washington Center
12:45PM 37.3003 -78.8006 217° Southwest 402 463 37,100 1,260 Climbing Washington Center
12:46PM 37.2061 -78.8881 217° Southwest 397 457 38,000 420 Climbing Washington Center
12:47PM 37.1181 -78.9728 218° Southwest 397 457 38,000  Level Washington Center
12:48PM 37.0322 -79.0575 218° Southwest 397 457 38,000  Level Washington Center
12:49PM 36.9464 -79.1367 216° Southwest 397 457 38,000  Level Washington Center
12:50PM 36.8672 -79.2108 217° Southwest 397 457 38,000  Level Washington Center
12:52PM 36.7461 -79.3229 217° Southwest  Level FlightAware Approximate
12:52PM 36.6953 -79.3714 217° Southwest 402 463 38,000  Level Washington Center
12:54PM 36.5422 -79.5142 217° Southwest 408 470 38,000  Level Atlanta Center
12:55PM 36.4453 -79.6022 216° Southwest 408 470 38,000  Level Atlanta Center
12:56PM 36.3606 -79.6817 217° Southwest 398 458 38,000  Level Atlanta Center
12:57PM 36.2736 -79.7636 217° Southwest 398 458 38,000  Level Atlanta Center
12:58PM 36.1889 -79.8403 216° Southwest 392 451 38,000  Level Atlanta Center
12:59PM 36.1078 -79.9139 216° Southwest 397 457 38,000  Level Atlanta Center
01:00PM 36.0142 -79.9853 212° Southwest 397 457 38,000  Level Atlanta Center
01:01PM 35.9050 -80.0214 195° South 391 450 38,000  Level Atlanta Center
01:02PM 35.7956 -80.0550 194° South 399 459 38,000  Level Atlanta Center
01:03PM 35.6736 -80.0942 195° South 404 465 38,000  Level Atlanta Center
01:04PM 35.5644 -80.1328 196° South 409 471 38,000  Level Atlanta Center
01:05PM 35.4569 -80.1708 196° South 415 478 38,000  Level Atlanta Center
01:06PM 35.3578 -80.2011 194° South 415 478 38,000  Level Atlanta Center
01:07PM 35.2483 -80.2367 195° South 415 478 38,000  Level Atlanta Center
01:09PM 35.0242 -80.3097 195° South 411 473 38,000  Level Jacksonville Center
01:10PM 34.9122 -80.3433 194° South 416 479 38,000  Level Jacksonville Center
01:11PM 34.8086 -80.3794 196° South 421 484 38,000  Level Jacksonville Center
01:12PM 34.6986 -80.4128 194° South 416 479 38,000  Level Jacksonville Center
01:13PM 34.5867 -80.4514 196° South 416 479 38,000  Level Jacksonville Center
01:14PM 34.4747 -80.4847 194° South 416 479 38,000  Level Jacksonville Center
01:15PM 34.3628 -80.5206 195° South 416 479 38,000  Level Jacksonville Center
01:16PM 34.2489 -80.5564 195° South 416 479 38,000  Level Jacksonville Center
01:17PM 34.1367 -80.5944 196° South 416 479 38,000  Level Jacksonville Center
01:18PM 34.0206 -80.6300 194° South 416 479 38,000  Level Jacksonville Center
01:19PM 33.9064 -80.6656 194° South 422 486 38,000  Level Jacksonville Center
01:20PM 33.7922 -80.7008 194° South 422 486 38,000  Level Jacksonville Center
01:21PM 33.6739 -80.7364 194° South 428 493 38,000  Level Jacksonville Center
01:22PM 33.5619 -80.7714 195° South 433 498 38,000  Level Jacksonville Center
01:23PM 33.4456 -80.8092 195° South 433 498 38,000  Level Jacksonville Center
01:24PM 33.3272 -80.8442 194° South 433 498 38,000  Level Jacksonville Center
01:25PM 33.2086 -80.8592 186° South 433 498 38,000  Level Jacksonville Center
01:26PM 33.0753 -80.8747 186° South 433 498 38,000  Level Jacksonville Center
01:27PM 32.9544 -80.8872 185° South 433 498 38,000  Level Jacksonville Center
01:28PM 32.8356 -80.9022 186° South 438 504 38,000  Level Jacksonville Center
01:29PM 32.7128 -80.9175 186° South 443 510 38,000  Level Jacksonville Center
01:30PM 32.5897 -80.9300 185° South 444 511 38,000  Level Jacksonville Center
01:31PM 32.4667 -80.9425 185° South 444 511 38,000  Level Jacksonville Center
01:32PM 32.3458 -80.9597 187° South 438 504 38,000  Level Jacksonville Center
01:33PM 32.2231 -80.9722 185° South 444 511 38,000  Level Jacksonville Center
01:34PM 32.1083 -80.9819 184° South 454 522 38,000  Level Jacksonville Center
01:35PM 31.9667 -80.9997 186° South 461 531 38,000  Level Jacksonville Center
01:36PM 31.8417 -81.0169 187° South 459 528 38,000  Level Jacksonville Center
01:37PM 31.7269 -81.0264 184° South 465 535 38,000  Level Jacksonville Center
01:38PM 31.5872 -81.0439 186° South 460 529 38,000  Level Jacksonville Center
01:39PM 31.4600 -81.0586 186° South 460 529 38,000  Level Jacksonville Center
01:40PM 31.3475 -81.0731 186° South 460 529 38,000 -900 Level Jacksonville Center
01:41PM 31.2206 -81.0900 187° South 460 529 36,200 -1,980 Descending Jacksonville Center
01:42PM 31.0975 -81.1022 185° South 460 529 34,100 -1,140 Descending Jacksonville Center
01:43PM 30.9703 -81.1192 187° South 460 529 34,000 -60 Descending Jacksonville Center
01:44PM 30.8431 -81.1311 185° South 460 529 34,000  Level Jacksonville Center
01:45PM 30.7158 -81.1456 186° South 460 529 34,000  Level Jacksonville Center
01:46PM 30.5908 -81.1528 183° South 465 535 34,000  Level Jacksonville Center
01:47PM 30.4572 -81.1503 179° South 465 535 34,000  Level Jacksonville Center
01:48PM 30.3275 -81.1453 178° South 465 535 34,000  Level Jacksonville Center
01:50PM 30.0644 -81.1358 178° South 465 535 34,000 -720 Level Jacksonville Center
01:51PM 29.9350 -81.1308 178° South 470 541 31,900 -2,940 Descending Jacksonville Center
01:52PM 29.8014 -81.1286 179° South 475 547 28,200 -3,300 Descending Jacksonville Center
01:53PM 29.6719 -81.1286 180° South 475 547 25,300 -2,880 Descending Jacksonville Center
01:54PM 29.5467 -81.1236 178° South 464 534 22,500 -2,880 Descending Jacksonville Center
01:55PM 29.4192 -81.1189 178° South 430 495 19,600 -2,820 Descending Jacksonville Center
01:56PM 29.3083 -81.1136 178° South 406 467 16,900 -2,700 Descending Jacksonville Center
01:57PM 29.1997 -81.1061 177° South 395 455 14,300 -2,160 Descending Jacksonville Center
01:58PM 29.1017 -81.0983 176° South 371 427 12,600 -1,200 Descending Jacksonville Center
01:59PM 29.0139 -81.0928 177° South 324 373 11,900 -840 Descending Jacksonville Center
02:00PM 28.9344 -81.0800 172° South 295 339 11,000 -1,140 Descending Jacksonville Center
02:01PM 28.8667 -81.0667 170° South 285 328 9,900 -1,140 Descending Orlando TRACON
02:02PM 28.7833 -81.0500 170° South 268 308 8,900 -900 Descending Orlando TRACON
02:03PM 28.7333 -81.0833 210° Southwest 206 237 8,100 -1,020 Descending Orlando TRACON
02:04PM 28.7333 -81.1500 270° West 220 253 7,000 -1,080 Descending Orlando TRACON
02:05PM 28.7333 -81.2167 270° West 224 258 6,100 -1,020 Descending Orlando TRACON
02:06PM 28.7000 -81.2667 233° Southwest 221 254 5,000 -1,080 Descending Orlando TRACON
02:07PM 28.6500 -81.2833 196° South 227 261 4,000 -1,140 Descending Orlando TRACON
02:08PM 28.5833 -81.2833 180° South 207 238 2,700 -1,080 Descending Orlando TRACON
02:09PM 28.5333 -81.2833 180° South 191 220 1,800 -900 Descending Orlando TRACON
02:10PM 28.4833 -81.2833 180° South 145 167 1,000 -900 Descending Orlando TRACON
02:12PM 28.4294 -81.3090 336° Northwest  Level Estimated
02:19PM 28.4294 -81.3090 336° Northwest  Level Estimated
02:20PM 28.4294 -81.3090 336° Northwest  Level Estimated
02:21PM 28.4294 -81.3090 336° Northwest  Level Estimated
02:22PM 28.4294 -81.3090 336° Northwest  Level Estimated